Time;durP1;ratioP1;P1;durP2;ratioP2;P2;SDS_P1;SDS_P2;PMS_P1;PMS_P2;Temp;Humidity;BMP_temperature;BMP_pressure;BME280_temperature;BME280_humidity;BME280_pressure;Samples;Min_cycle;Max_cycle;Signal;HPM_P1;HPM_P2
2022/08/26 00:01:51;;;;;;;;;;;;;;;20.28;100.00;101635.34;5114679;28;19924;-38
2022/08/26 00:04:20;;;;;;;;;;;;;;;20.26;100.00;101632.00;5114330;28;19928;-39
2022/08/26 00:06:48;;;;;;;;;;;;;;;20.25;100.00;101641.69;5113686;28;20039;-33
2022/08/26 00:09:15;;;;;;;;;;;;;;;20.23;100.00;101624.19;5114289;28;19924;-43
2022/08/26 00:11:43;;;;;;;;;;;;;;;20.21;100.00;101628.56;5107647;28;20611;-31
2022/08/26 00:14:12;;;;;;;;;;;;;;;20.21;100.00;101640.72;5113609;28;19930;-33
2022/08/26 00:16:42;;;;;;;;;;;;;;;20.22;100.00;101642.38;5114180;28;19924;-33
2022/08/26 00:19:16;;;;;;;;;;;;;;;20.23;100.00;101635.53;5096211;28;20326;-33
2022/08/26 00:21:44;;;;;;;;;;;;;;;20.23;100.00;101641.22;5113368;28;19931;-33
2022/08/26 00:24:12;;;;;;;;;;;;;;;20.23;100.00;101646.88;5114223;28;20325;-34
2022/08/26 00:26:39;;;;;;;;;;;;;;;20.21;100.00;101648.38;5114114;28;20005;-41
2022/08/26 00:29:08;;;;;;;;;;;;;;;20.20;100.00;101643.91;5113233;28;19928;-43
2022/08/26 00:31:35;;;;;;;;;;;;;;;20.19;100.00;101645.91;5113718;28;19930;-38
2022/08/26 00:34:05;;;;;;;;;;;;;;;20.19;100.00;101645.91;5113006;28;19930;-34
2022/08/26 00:36:32;;;;;;;;;;;;;;;20.19;100.00;101643.06;5113978;28;19930;-33
2022/08/26 00:39:00;;;;;;;;;;;;;;;20.18;100.00;101649.91;5113763;28;20023;-33
2022/08/26 00:41:28;;;;;;;;;;;;;;;20.18;100.00;101643.44;5112992;28;19932;-40
2022/08/26 00:43:56;;;;;;;;;;;;;;;20.18;100.00;101657.59;5113774;28;19946;-34
2022/08/26 00:46:27;;;;;;;;;;;;;;;20.16;100.00;101651.44;5113593;28;19932;-36
2022/08/26 00:48:59;;;;;;;;;;;;;;;20.13;100.00;101658.63;5113015;28;19955;-38
2022/08/26 00:51:28;;;;;;;;;;;;;;;20.12;100.00;101653.31;5113941;28;19924;-32
2022/08/26 00:53:58;;;;;;;;;;;;;;;20.09;100.00;101657.66;5113418;28;19927;-37
2022/08/26 00:56:29;;;;;;;;;;;;;;;20.07;100.00;101630.84;5108906;28;19931;-40
2022/08/26 00:58:58;;;;;;;;;;;;;;;20.05;100.00;101622.69;5113660;28;19935;-35
2022/08/26 01:01:27;;;;;;;;;;;;;;;20.02;100.00;101612.03;5113403;28;19976;-39
2022/08/26 01:03:57;;;;;;;;;;;;;;;20.01;100.00;101635.88;5112672;28;19924;-38
2022/08/26 01:06:27;;;;;;;;;;;;;;;19.99;100.00;101624.03;5113431;28;19924;-39
2022/08/26 01:08:56;;;;;;;;;;;;;;;19.95;100.00;101635.25;5094155;28;20270;-37
2022/08/26 01:11:24;;;;;;;;;;;;;;;19.93;100.00;101648.13;5112235;28;20388;-33
2022/08/26 01:13:54;;;;;;;;;;;;;;;19.93;100.00;101654.59;5113742;28;19924;-38
2022/08/26 01:16:23;;;;;;;;;;;;;;;19.94;100.00;101656.28;5112301;28;19930;-34
2022/08/26 01:18:52;;;;;;;;;;;;;;;19.96;100.00;101650.25;5113239;28;19924;-41
2022/08/26 01:21:26;;;;;;;;;;;;;;;19.96;100.00;101653.09;5112977;28;20018;-40
2022/08/26 01:23:55;;;;;;;;;;;;;;;19.93;100.00;101653.78;5112268;28;19924;-33
2022/08/26 01:26:25;;;;;;;;;;;;;;;19.89;100.00;101647.97;5113348;28;19928;-36
2022/08/26 01:28:54;;;;;;;;;;;;;;;19.87;100.00;101646.66;5112779;28;19924;-33
2022/08/26 01:31:23;;;;;;;;;;;;;;;19.84;100.00;101661.50;5112187;28;20407;-31
2022/08/26 01:33:55;;;;;;;;;;;;;;;19.79;100.00;101668.16;5112814;28;19923;-39
2022/08/26 01:36:24;;;;;;;;;;;;;;;19.76;100.00;101679.38;5112782;28;19932;-30
2022/08/26 01:38:51;;;;;;;;;;;;;;;19.75;100.00;101670.06;5111995;28;19931;-36
2022/08/26 01:41:21;;;;;;;;;;;;;;;19.76;100.00;101665.22;5112724;28;19931;-32
2022/08/26 01:43:56;;;;;;;;;;;;;;;19.74;100.00;101665.56;5112848;28;20384;-40
2022/08/26 01:46:26;;;;;;;;;;;;;;;19.73;100.00;101660.22;5111963;28;19932;-37
2022/08/26 01:48:54;;;;;;;;;;;;;;;19.72;100.00;101661.41;5112682;28;19924;-32
2022/08/26 01:51:23;;;;;;;;;;;;;;;19.69;100.00;101659.25;5111938;28;20384;-32
2022/08/26 01:53:50;;;;;;;;;;;;;;;19.66;100.00;101657.94;5101841;28;19931;-32
2022/08/26 01:56:21;;;;;;;;;;;;;;;19.62;100.00;101665.44;5112563;28;19971;-32
2022/08/26 01:58:51;;;;;;;;;;;;;;;19.59;100.00;101664.13;5111832;28;19997;-34
2022/08/26 02:01:19;;;;;;;;;;;;;;;19.58;100.00;101664.47;5112610;28;19947;-32
2022/08/26 02:03:51;;;;;;;;;;;;;;;19.55;100.00;101659.50;5112716;28;19923;-33
2022/08/26 02:06:19;;;;;;;;;;;;;;;19.52;100.00;101661.00;5111561;28;19928;-34
2022/08/26 02:08:48;;;;;;;;;;;;;;;19.51;100.00;101670.66;5112596;28;19931;-38
2022/08/26 02:11:16;;;;;;;;;;;;;;;19.48;100.00;101660.00;5112389;28;19924;-38
2022/08/26 02:13:48;;;;;;;;;;;;;;;19.47;100.00;101663.16;5111547;28;19932;-36
2022/08/26 02:16:16;;;;;;;;;;;;;;;19.45;100.00;101666.31;5112654;28;19927;-33
2022/08/26 02:18:44;;;;;;;;;;;;;;;19.43;100.00;101657.34;5110390;28;19946;-43
2022/08/26 02:21:13;;;;;;;;;;;;;;;19.43;100.00;101657.34;5113649;28;20288;-32
2022/08/26 02:23:41;;;;;;;;;;;;;;;19.42;100.00;101655.69;5116473;28;19923;-33
2022/08/26 02:26:13;;;;;;;;;;;;;;;19.41;100.00;101662.50;5109640;28;20356;-32
2022/08/26 02:28:52;;;;;;;;;;;;;;;19.39;100.00;101664.00;5115760;28;19984;-35
2022/08/26 02:31:19;;;;;;;;;;;;;;;19.37;100.00;101663.53;5116487;28;19927;-40
2022/08/26 02:33:48;;;;;;;;;;;;;;;19.35;100.00;101655.41;5115446;28;19970;-33
2022/08/26 02:36:18;;;;;;;;;;;;;;;19.35;100.00;101655.41;5116166;28;19923;-37
2022/08/26 02:38:46;;;;;;;;;;;;;;;19.35;100.00;101657.38;5116216;28;19931;-33
2022/08/26 02:41:14;;;;;;;;;;;;;;;19.33;100.00;101668.22;5115420;28;19924;-32
2022/08/26 02:43:45;;;;;;;;;;;;;;;19.33;100.00;101671.88;5116089;28;19924;-32
2022/08/26 02:46:13;;;;;;;;;;;;;;;19.33;100.00;101668.22;5116072;28;19931;-40
2022/08/26 02:48:54;;;;;;;;;;;;;;;19.33;100.00;101669.06;5115180;28;19976;-35
2022/08/26 02:51:22;;;;;;;;;;;;;;;19.33;100.00;101669.06;5116042;28;19931;-31
2022/08/26 02:53:49;;;;;;;;;;;;;;;19.31;100.00;101670.56;5115944;28;19928;-37
2022/08/26 02:56:17;;;;;;;;;;;;;;;19.28;100.00;101675.72;5114994;28;19924;-32
2022/08/26 02:58:46;;;;;;;;;;;;;;;19.26;100.00;101675.22;5104588;28;20411;-41
2022/08/26 03:01:22;;;;;;;;;;;;;;;19.23;100.00;101664.56;5115672;28;19928;-36
2022/08/26 03:03:49;;;;;;;;;;;;;;;19.21;100.00;101671.75;5114660;28;19928;-32
2022/08/26 03:06:17;;;;;;;;;;;;;;;19.19;100.00;101677.72;5115592;28;20461;-32
2022/08/26 03:08:45;;;;;;;;;;;;;;;19.19;100.00;101677.72;5115259;28;20285;-40
2022/08/26 03:11:13;;;;;;;;;;;;;;;19.20;100.00;101681.41;5115666;28;19969;-38
2022/08/26 03:13:41;;;;;;;;;;;;;;;19.19;100.00;101666.41;5115429;28;20022;-41
2022/08/26 03:16:10;;;;;;;;;;;;;;;19.18;100.00;101659.09;5114434;28;19928;-32
2022/08/26 03:18:38;;;;;;;;;;;;;;;19.17;100.00;101660.28;5115478;28;19924;-35
2022/08/26 03:21:06;;;;;;;;;;;;;;;19.17;100.00;101667.94;5115346;28;19930;-41
2022/08/26 03:23:34;;;;;;;;;;;;;;;19.19;100.00;101659.94;5112189;28;19924;-32
2022/08/26 03:26:03;;;;;;;;;;;;;;;19.18;100.00;101661.91;5112971;28;19923;-32
2022/08/26 03:28:30;;;;;;;;;;;;;;;19.20;100.00;101664.41;5112799;28;19934;-39
2022/08/26 03:30:57;;;;;;;;;;;;;;;19.20;100.00;101662.41;5114300;28;19928;-34
2022/08/26 03:33:27;;;;;;;;;;;;;;;19.21;100.00;101663.25;5107501;28;20277;-39
2022/08/26 03:35:55;;;;;;;;;;;;;;;19.21;100.00;101663.25;5115242;28;19928;-33
2022/08/26 03:38:24;;;;;;;;;;;;;;;19.20;100.00;101664.41;5114243;28;19924;-34
2022/08/26 03:40:52;;;;;;;;;;;;;;;19.21;100.00;101657.59;5114911;28;19966;-33
2022/08/26 03:43:21;;;;;;;;;;;;;;;19.19;100.00;101655.09;5114748;28;19923;-34
2022/08/26 03:45:49;;;;;;;;;;;;;;;19.18;100.00;101655.47;5113983;28;20449;-33
2022/08/26 03:48:17;;;;;;;;;;;;;;;19.17;100.00;101657.47;5114638;28;20392;-37
2022/08/26 03:50:46;;;;;;;;;;;;;;;19.14;100.00;101660.97;5114723;28;19924;-33
2022/08/26 03:53:15;;;;;;;;;;;;;;;19.12;100.00;101663.28;5113892;28;20295;-38
2022/08/26 03:55:47;;;;;;;;;;;;;;;19.10;100.00;101662.81;5114661;28;20295;-38
2022/08/26 03:58:19;;;;;;;;;;;;;;;19.09;100.00;101672.44;5114036;28;19923;-40
2022/08/26 04:00:46;;;;;;;;;;;;;;;19.09;100.00;101672.44;5103438;28;19930;-33
2022/08/26 04:03:56;;;;;;;;;;;;;;;19.10;100.00;101671.28;5114566;28;20297;-34
2022/08/26 04:06:09;;;;;;;;;;;;;;;19.11;100.00;101672.13;5103486;28;20380;-37
2022/08/26 04:08:37;;;;;;;;;;;;;;;19.12;100.00;101670.94;5114578;28;19927;-33
2022/08/26 04:11:05;;;;;;;;;;;;;;;19.13;100.00;101672.63;5114396;28;19931;-36
2022/08/26 04:13:32;;;;;;;;;;;;;;;19.12;100.00;101666.13;5113641;28;19931;-34
2022/08/26 04:16:00;;;;;;;;;;;;;;;19.11;100.00;101672.13;5114284;28;19924;-39
2022/08/26 04:18:30;;;;;;;;;;;;;;;19.11;100.00;101664.47;5114075;28;19923;-41
2022/08/26 04:21:04;;;;;;;;;;;;;;;19.12;100.00;101670.94;5109963;28;19932;-44
2022/08/26 04:23:35;;;;;;;;;;;;;;;19.11;100.00;101669.28;5114358;28;20027;-35
2022/08/26 04:26:14;;;;;;;;;;;;;;;19.08;100.00;101656.66;5109861;28;19996;-33
2022/08/26 04:28:42;;;;;;;;;;;;;;;19.09;100.00;101657.47;5114224;28;19927;-34
2022/08/26 04:31:12;;;;;;;;;;;;;;;19.08;100.00;101655.81;5113496;28;20408;-36
2022/08/26 04:33:39;;;;;;;;;;;;;;;19.08;100.00;101655.81;5113589;28;19924;-32
2022/08/26 04:36:08;;;;;;;;;;;;;;;19.08;100.00;101655.81;5113923;28;19931;-34
2022/08/26 04:38:37;;;;;;;;;;;;;;;19.07;100.00;101662.63;5114105;28;19924;-33
2022/08/26 04:41:07;;;;;;;;;;;;;;;19.07;100.00;101659.81;5112680;28;19924;-32
2022/08/26 04:43:43;;;;;;;;;;;;;;;19.06;100.00;101658.16;5113377;28;19924;-32
2022/08/26 04:46:11;;;;;;;;;;;;;;;19.05;100.00;101662.97;5113472;28;19993;-35
2022/08/26 04:48:39;;;;;;;;;;;;;;;19.06;100.00;101670.28;5112681;28;19924;-37
2022/08/26 04:51:08;;;;;;;;;;;;;;;19.04;100.00;101677.44;5113579;28;19930;-31
2022/08/26 04:53:36;;;;;;;;;;;;;;;19.03;100.00;101676.63;5113426;28;19985;-36
2022/08/26 04:56:07;;;;;;;;;;;;;;;19.00;100.00;101674.47;5112379;28;19924;-32
2022/08/26 04:58:36;;;;;;;;;;;;;;;18.99;100.00;101688.94;5113649;28;20006;-32
2022/08/26 05:01:04;;;;;;;;;;;;;;;18.98;100.00;101688.13;5113212;28;19931;-36
2022/08/26 05:03:32;;;;;;;;;;;;;;;18.97;100.00;101682.81;5112503;28;19935;-32
2022/08/26 05:06:03;;;;;;;;;;;;;;;18.97;100.00;101689.31;5113181;28;20303;-32
2022/08/26 05:08:31;;;;;;;;;;;;;;;18.98;100.00;101690.97;5112444;28;19931;-35
2022/08/26 05:10:59;;;;;;;;;;;;;;;18.99;100.00;101692.59;5113560;28;19934;-40
2022/08/26 05:13:28;;;;;;;;;;;;;;;19.00;100.00;101690.59;5112262;28;19930;-34
2022/08/26 05:15:55;;;;;;;;;;;;;;;19.02;100.00;101693.94;5112578;28;19924;-32
2022/08/26 05:18:29;;;;;;;;;;;;;;;19.02;100.00;101691.94;5102669;28;20010;-39
2022/08/26 05:20:56;;;;;;;;;;;;;;;19.03;100.00;101692.75;5113056;28;20302;-38
2022/08/26 05:23:24;;;;;;;;;;;;;;;19.04;100.00;101694.44;5110955;28;19931;-36
2022/08/26 05:25:53;;;;;;;;;;;;;;;19.03;100.00;101699.25;5099851;28;19931;-32
2022/08/26 05:28:27;;;;;;;;;;;;;;;19.03;100.00;101699.25;5111802;28;19989;-35
2022/08/26 05:30:56;;;;;;;;;;;;;;;19.02;100.00;101711.72;5111950;28;19928;-38
2022/08/26 05:33:24;;;;;;;;;;;;;;;19.02;100.00;101703.25;5112900;28;19927;-33
2022/08/26 05:35:51;;;;;;;;;;;;;;;19.02;100.00;101706.06;5112784;28;19927;-38
2022/08/26 05:38:21;;;;;;;;;;;;;;;19.02;100.00;101708.06;5112090;28;19931;-33
2022/08/26 05:40:49;;;;;;;;;;;;;;;19.02;100.00;101711.72;5112465;28;19924;-32
2022/08/26 05:43:19;;;;;;;;;;;;;;;19.02;100.00;101705.25;5112861;28;19923;-32
2022/08/26 05:45:48;;;;;;;;;;;;;;;19.02;100.00;101705.25;5111962;28;19934;-31
2022/08/26 05:48:18;;;;;;;;;;;;;;;19.02;100.00;101705.25;5112556;28;19924;-33
2022/08/26 05:50:51;;;;;;;;;;;;;;;19.01;100.00;101707.25;5112027;28;19939;-35
2022/08/26 05:53:20;;;;;;;;;;;;;;;19.01;100.00;101712.91;5112659;28;19931;-32
2022/08/26 05:55:51;;;;;;;;;;;;;;;19.03;100.00;101709.75;5112047;28;19924;-40
2022/08/26 05:58:20;;;;;;;;;;;;;;;19.04;100.00;101714.22;5111770;28;20301;-36
2022/08/26 06:00:56;;;;;;;;;;;;;;;19.03;100.00;101719.06;5112326;28;19945;-35
2022/08/26 06:03:25;;;;;;;;;;;;;;;19.04;100.00;101711.41;5112714;28;19934;-35
2022/08/26 06:05:52;;;;;;;;;;;;;;;19.04;100.00;101723.56;5111809;28;20403;-33
2022/08/26 06:08:21;;;;;;;;;;;;;;;19.06;100.00;101717.56;5112714;28;19985;-33
2022/08/26 06:10:51;;;;;;;;;;;;;;;19.05;100.00;101713.91;5112904;28;19924;-32
2022/08/26 06:13:19;;;;;;;;;;;;;;;19.06;100.00;101715.56;5111465;28;19931;-38
2022/08/26 06:15:48;;;;;;;;;;;;;;;19.08;100.00;101723.72;5112328;28;19928;-38
2022/08/26 06:18:17;;;;;;;;;;;;;;;19.08;100.00;101718.06;5112300;28;19930;-32
2022/08/26 06:20:46;;;;;;;;;;;;;;;19.09;100.00;101729.03;5111566;28;20258;-36
2022/08/26 06:26:10;;;;;;;;;;;;;;;19.11;100.00;101734.38;5111756;28;19946;-32
2022/08/26 06:28:38;;;;;;;;;;;;;;;19.08;100.00;101730.22;5112262;28;19924;-34
2022/08/26 06:31:05;;;;;;;;;;;;;;;19.08;100.00;101732.19;5112142;28;19923;-41
2022/08/26 06:33:34;;;;;;;;;;;;;;;19.06;100.00;101729.72;5111415;28;19947;-38
2022/08/26 06:36:03;;;;;;;;;;;;;;;19.07;100.00;101733.38;5112109;28;19930;-37
2022/08/26 06:38:31;;;;;;;;;;;;;;;19.08;100.00;101746.34;5112320;28;19924;-31
2022/08/26 06:40:59;;;;;;;;;;;;;;;19.12;100.00;101747.34;5111758;28;19931;-38
2022/08/26 06:43:28;;;;;;;;;;;;;;;19.12;100.00;101747.34;5100854;28;20001;-31
2022/08/26 06:46:03;;;;;;;;;;;;;;;19.13;100.00;101751.84;5112056;28;19932;-38
2022/08/26 06:48:31;;;;;;;;;;;;;;;19.15;100.00;101755.16;5111617;28;20040;-33
2022/08/26 06:51:04;;;;;;;;;;;;;;;19.16;100.00;101759.66;5111807;28;20411;-33
2022/08/26 06:53:32;;;;;;;;;;;;;;;19.19;100.00;101761.78;5112378;28;20342;-32
2022/08/26 06:56:02;;;;;;;;;;;;;;;19.22;100.00;101761.13;5111048;28;20362;-40
2022/08/26 06:58:30;;;;;;;;;;;;;;;19.23;100.00;101757.13;5112043;28;19923;-35
2022/08/26 07:00:58;;;;;;;;;;;;;;;19.23;100.00;101766.44;5110921;28;19951;-35
2022/08/26 07:03:37;;;;;;;;;;;;;;;19.22;100.00;101761.97;5111835;28;19931;-33
2022/08/26 07:06:08;;;;;;;;;;;;;;;19.23;100.00;101760.78;5111840;28;19928;-33
2022/08/26 07:08:36;;;;;;;;;;;;;;;19.22;100.00;101770.44;5113812;28;19959;-33
2022/08/26 07:11:05;;;;;;;;;;;;;;;19.20;100.00;101764.28;5115492;28;20300;-38
2022/08/26 07:13:35;;;;;;;;;;;;;;;19.19;100.00;101761.78;5113431;28;19928;-37
2022/08/26 07:16:03;;;;;;;;;;;;;;;19.19;100.00;101761.78;5096518;28;19923;-33
2022/08/26 07:18:31;;;;;;;;;;;;;;;19.21;100.00;101768.78;5115203;28;19976;-33
2022/08/26 07:21:01;;;;;;;;;;;;;;;19.25;100.00;101766.13;5108593;28;19928;-31
2022/08/26 07:23:30;;;;;;;;;;;;;;;19.29;100.00;101764.28;5114508;28;19928;-32
2022/08/26 07:25:58;;;;;;;;;;;;;;;19.32;100.00;101766.44;5114984;28;19923;-34
2022/08/26 07:28:27;;;;;;;;;;;;;;;19.35;100.00;101767.78;5114963;28;19924;-37
2022/08/26 07:30:54;;;;;;;;;;;;;;;19.37;100.00;101774.78;5114189;28;19935;-38
2022/08/26 07:33:24;;;;;;;;;;;;;;;19.41;100.00;101783.41;5115149;28;19966;-32
2022/08/26 07:35:52;;;;;;;;;;;;;;;19.43;100.00;101781.91;5115065;28;19924;-35
2022/08/26 07:38:19;;;;;;;;;;;;;;;19.45;100.00;101775.91;5095677;28;20400;-33
2022/08/26 07:40:48;;;;;;;;;;;;;;;19.49;100.00;101788.22;5114839;28;19924;-31
2022/08/26 07:43:17;;;;;;;;;;;;;;;19.56;100.00;101783.75;5114187;28;19928;-32
2022/08/26 07:45:46;;;;;;;;;;;;;;;19.63;100.00;101788.88;5114862;28;19924;-32
2022/08/26 07:48:13;;;;;;;;;;;;;;;19.68;100.00;101787.84;5114696;28;19941;-32
2022/08/26 07:50:42;;;;;;;;;;;;;;;19.74;100.00;101781.69;5103133;28;19945;-33
2022/08/26 07:53:17;;;;;;;;;;;;;;;19.80;100.00;101787.97;5115051;28;20435;-32
2022/08/26 07:55:46;;;;;;;;;;;;;;;19.86;100.00;101789.44;5114808;28;19953;-37
2022/08/26 07:58:15;;;;;;;;;;;;;;;19.88;100.00;101787.94;5113675;28;19924;-32
2022/08/26 08:00:43;;;;;;;;;;;;;;;19.90;100.00;101790.44;5114851;28;19942;-33
2022/08/26 08:03:11;;;;;;;;;;;;;;;19.91;100.00;101789.25;5114519;28;19992;-41
2022/08/26 08:05:40;;;;;;;;;;;;;;;19.93;100.00;101801.94;5113473;28;19923;-32
2022/08/26 08:08:09;;;;;;;;;;;;;;;19.93;100.00;101795.44;5114743;28;19931;-31
2022/08/26 08:10:55;;;;;;;;;;;;;;;19.91;100.00;101795.75;5114087;28;20404;-32
2022/08/26 08:13:24;;;;;;;;;;;;;;;19.91;100.00;101798.59;5112757;28;20393;-39
2022/08/26 08:15:51;;;;;;;;;;;;;;;19.93;100.00;101801.09;5113839;28;19928;-32
2022/08/26 08:18:19;;;;;;;;;;;;;;;19.93;100.00;101807.59;5112876;28;19939;-34
2022/08/26 08:20:47;;;;;;;;;;;;;;;19.93;100.00;101806.75;5114105;28;19931;-32
2022/08/26 08:23:31;;;;;;;;;;;;;;;19.96;100.00;101800.41;5114103;28;19941;-38
2022/08/26 08:26:03;;;;;;;;;;;;;;;20.02;100.00;101809.53;5113241;28;19924;-34
2022/08/26 08:28:32;;;;;;;;;;;;;;;20.08;100.00;101814.69;5113787;28;20369;-37
2022/08/26 08:31:00;;;;;;;;;;;;;;;20.11;100.00;101805.50;5113592;28;20445;-32
2022/08/26 08:33:30;;;;;;;;;;;;;;;20.10;100.00;101818.00;5113099;28;20372;-31
2022/08/26 08:35:57;;;;;;;;;;;;;;;20.11;100.00;101822.50;5113890;28;19927;-39
2022/08/26 08:38:26;;;;;;;;;;;;;;;20.15;100.00;101819.84;5113847;28;20304;-33
2022/08/26 08:40:53;;;;;;;;;;;;;;;20.17;100.00;101821.16;5113031;28;19938;-32
2022/08/26 08:43:28;;;;;;;;;;;;;;;20.18;100.00;101822.78;5113402;28;19923;-32
2022/08/26 08:46:00;;;;;;;;;;;;;;;20.21;100.00;101824.13;5113551;28;20010;-32
2022/08/26 08:48:33;;;;;;;;;;;;;;;20.26;100.00;101830.44;5112917;28;19955;-39
2022/08/26 08:51:05;;;;;;;;;;;;;;;20.30;100.00;101827.75;5113414;28;20377;-32
2022/08/26 08:53:36;;;;;;;;;;;;;;;20.32;100.00;101822.56;5112503;28;20179;-32
2022/08/26 08:56:10;;;;;;;;;;;;;;;20.38;100.00;101821.25;5113433;28;19924;-35
2022/08/26 08:58:47;;;;;;;;;;;;;;;20.45;100.00;101815.00;5113435;28;19924;-40
2022/08/26 09:01:23;;;;;;;;;;;;;;;20.49;100.00;101822.50;5112664;28;19924;-34
2022/08/26 09:03:53;;;;;;;;;;;;;;;20.50;100.00;101820.50;5113375;28;19969;-34
2022/08/26 09:06:20;;;;;;;;;;;;;;;20.51;100.00;101817.31;5113061;28;19931;-38
2022/08/26 09:08:50;;;;;;;;;;;;;;;20.49;100.00;101821.66;5112186;28;20384;-34
2022/08/26 09:11:19;;;;;;;;;;;;;;;20.48;100.00;101822.84;5113235;28;19923;-34
2022/08/26 09:13:49;;;;;;;;;;;;;;;20.51;100.00;101816.47;5113176;28;19924;-32
2022/08/26 09:16:19;;;;;;;;;;;;;;;20.55;100.00;101821.13;5112343;28;19947;-34
2022/08/26 09:18:55;;;;;;;;;;;;;;;20.58;100.00;101831.75;5112976;28;19975;-35
2022/08/26 09:21:24;;;;;;;;;;;;;;;20.61;100.00;101830.25;5113009;28;19931;-40
2022/08/26 09:23:54;;;;;;;;;;;;;;;20.61;100.00;101833.91;5112591;28;19969;-32
2022/08/26 09:26:25;;;;;;;;;;;;;;;20.61;100.00;101830.25;5113013;28;19923;-37
2022/08/26 09:28:57;;;;;;;;;;;;;;;20.63;100.00;101836.41;5112149;28;19928;-40
2022/08/26 09:31:27;;;;;;;;;;;;;;;20.64;100.00;101838.06;5108434;28;20400;-36
2022/08/26 09:34:06;;;;;;;;;;;;;;;20.67;100.00;101842.22;5113114;28;19924;-33
2022/08/26 09:36:35;;;;;;;;;;;;;;;20.76;100.00;101845.84;5108651;28;20723;-35
2022/08/26 09:39:11;;;;;;;;;;;;;;;20.88;100.00;101843.91;5112802;28;19924;-34
2022/08/26 09:41:39;;;;;;;;;;;;;;;20.96;100.00;101828.84;5112503;28;20381;-32
2022/08/26 09:44:12;;;;;;;;;;;;;;;21.02;100.00;101837.94;5112234;28;19939;-35
2022/08/26 09:46:45;;;;;;;;;;;;;;;21.08;100.00;101842.25;5112594;28;19930;-32
2022/08/26 09:49:22;;;;;;;;;;;;;;;21.11;100.00;101843.56;5109184;28;19965;-34
2022/08/26 09:52:02;;;;;;;;;;;;;;;21.16;100.00;101832.00;5111728;28;19924;-33
2022/08/26 09:54:30;;;;;;;;;;;;;;;21.23;100.00;101838.81;5110113;28;19934;-34
2022/08/26 09:57:10;;;;;;;;;;;;;;;21.40;100.00;101839.81;5109354;28;19931;-38
2022/08/26 09:59:38;;;;;;;;;;;;;;;21.66;100.00;101832.69;5109512;28;19924;-34
2022/08/26 10:02:19;;;;;;;;;;;;;;;21.98;100.00;101827.31;5112297;28;19931;-36
2022/08/26 10:04:50;;;;;;;;;;;;;;;22.20;100.00;101838.25;5108987;28;20280;-33
2022/08/26 10:07:33;;;;;;;;;;;;;;;22.42;100.00;101841.81;5112372;28;19931;-36
2022/08/26 10:10:03;;;;;;;;;;;;;;;22.69;100.00;101841.91;5110141;28;19923;-33
2022/08/26 10:12:34;;;;;;;;;;;;;;;22.92;100.00;101841.44;5111426;28;20022;-33
2022/08/26 10:15:07;;;;;;;;;;;;;;;23.01;97.89;101836.41;5112454;28;19924;-39
2022/08/26 10:17:39;;;;;;;;;;;;;;;23.02;96.74;101833.22;5112724;28;19924;-33
2022/08/26 10:20:10;;;;;;;;;;;;;;;23.14;97.35;101840.91;5111462;28;20339;-39
2022/08/26 10:22:53;;;;;;;;;;;;;;;23.32;96.63;101835.72;5112261;28;19928;-36
2022/08/26 10:25:23;;;;;;;;;;;;;;;23.54;95.73;101828.66;5111634;28;20403;-41
2022/08/26 10:27:54;;;;;;;;;;;;;;;23.74;93.86;101832.47;5112451;28;19934;-32
2022/08/26 10:30:23;;;;;;;;;;;;;;;23.82;92.12;101837.97;5112048;28;20349;-33
2022/08/26 10:32:55;;;;;;;;;;;;;;;23.80;90.77;101831.81;5111404;28;19924;-32
2022/08/26 10:35:25;;;;;;;;;;;;;;;23.74;90.07;101830.44;5112302;28;20015;-28
2022/08/26 10:37:56;;;;;;;;;;;;;;;23.65;89.90;101836.28;5111849;28;19924;-30
2022/08/26 10:40:25;;;;;;;;;;;;;;;23.59;90.46;101834.06;5108796;28;19927;-28
2022/08/26 10:42:56;;;;;;;;;;;;;;;23.59;91.20;101837.75;5115181;28;19924;-29
2022/08/26 10:45:26;;;;;;;;;;;;;;;23.63;91.21;101838.69;5116120;28;19928;-34
2022/08/26 10:48:00;;;;;;;;;;;;;;;23.62;89.65;101837.03;5106036;28;19931;-29
2022/08/26 10:50:31;;;;;;;;;;;;;;;23.52;89.46;101845.28;5115326;28;19962;-29
2022/08/26 10:53:01;;;;;;;;;;;;;;;23.44;89.12;101844.19;5114095;28;19934;-36
2022/08/26 10:55:33;;;;;;;;;;;;;;;23.39;90.49;101838.75;5115088;28;19924;-30
2022/08/26 10:58:06;;;;;;;;;;;;;;;23.39;90.50;101841.59;5114702;28;19950;-29
2022/08/26 11:03:34;;;;;;;;;;;;;;;23.38;89.63;101831.44;5106415;28;20416;-30
2022/08/26 11:06:25;;;;;;;;;;;;;;;23.40;88.45;101848.13;5114513;28;20312;-32
2022/08/26 11:08:53;;;;;;;;;;;;;;;23.36;87.78;101842.38;5109410;28;20338;-29
2022/08/26 11:11:39;;;;;;;;;;;;;;;23.33;88.22;101837.38;5114519;28;19935;-32
2022/08/26 11:14:08;;;;;;;;;;;;;;;23.33;88.61;101845.94;5113956;28;19955;-38
2022/08/26 11:16:38;;;;;;;;;;;;;;;23.35;88.60;101841.53;5114522;28;19935;-30
2022/08/26 11:19:12;;;;;;;;;;;;;;;23.41;88.99;101835.56;5114396;28;19927;-30
2022/08/26 11:21:43;;;;;;;;;;;;;;;23.51;88.25;101841.56;5113492;28;19927;-33
2022/08/26 11:24:33;;;;;;;;;;;;;;;23.61;88.72;101846.75;5114431;28;20014;-33
2022/08/26 11:27:02;;;;;;;;;;;;;;;23.64;87.48;101842.34;5112318;28;19928;-30
2022/08/26 11:29:48;;;;;;;;;;;;;;;23.58;86.36;101847.47;5114081;28;19923;-29
2022/08/26 11:32:24;;;;;;;;;;;;;;;23.50;85.78;101853.31;5112822;28;20367;-30
2022/08/26 11:34:58;;;;;;;;;;;;;;;23.44;86.97;101847.06;5113883;28;19928;-31
2022/08/26 11:37:31;;;;;;;;;;;;;;;23.42;87.12;101843.72;5113731;28;19930;-30
2022/08/26 11:40:00;;;;;;;;;;;;;;;23.42;87.54;101849.44;5114665;28;19931;-31
2022/08/26 11:42:33;;;;;;;;;;;;;;;23.47;87.75;101845.50;5111647;28;20005;-30
2022/08/26 11:45:01;;;;;;;;;;;;;;;23.54;86.64;101845.75;5115212;28;20280;-29
2022/08/26 11:47:32;;;;;;;;;;;;;;;23.60;85.73;101841.41;5114763;28;19949;-31
2022/08/26 11:50:13;;;;;;;;;;;;;;;23.73;86.17;101842.19;5107833;28;20369;-37
2022/08/26 11:52:40;;;;;;;;;;;;;;;23.87;85.28;101842.59;5114407;28;20297;-36
2022/08/26 11:55:10;;;;;;;;;;;;;;;23.93;83.10;101838.28;5114182;28;19927;-38
2022/08/26 11:57:41;;;;;;;;;;;;;;;23.91;81.65;101837.81;5113948;28;19928;-29
2022/08/26 12:00:10;;;;;;;;;;;;;;;23.93;81.81;101835.41;5114973;28;19941;-29
2022/08/26 12:02:43;;;;;;;;;;;;;;;23.95;81.33;101839.56;5114734;28;19966;-29
2022/08/26 12:05:16;;;;;;;;;;;;;;;23.93;81.30;101841.13;5113304;28;19950;-34
2022/08/26 12:07:49;;;;;;;;;;;;;;;23.98;81.26;101840.88;5114593;28;19928;-29
2022/08/26 12:10:25;;;;;;;;;;;;;;;23.94;79.69;101837.91;5113733;28;19930;-31
2022/08/26 12:12:56;;;;;;;;;;;;;;;23.90;80.04;101841.84;5114603;28;19924;-34
2022/08/26 12:15:25;;;;;;;;;;;;;;;23.92;80.52;101839.47;5114208;28;19924;-31
2022/08/26 12:17:56;;;;;;;;;;;;;;;23.90;78.72;101836.97;5113253;28;19963;-34
2022/08/26 12:20:44;;;;;;;;;;;;;;;23.96;79.51;101849.78;5114119;28;19931;-33
2022/08/26 12:23:22;;;;;;;;;;;;;;;24.07;79.28;101843.50;5114352;28;19924;-38
2022/08/26 12:25:50;;;;;;;;;;;;;;;24.10;77.99;101843.63;5113262;28;19976;-32
2022/08/26 12:28:20;;;;;;;;;;;;;;;24.13;78.27;101845.72;5113785;28;19932;-29
2022/08/26 12:30:59;;;;;;;;;;;;;;;24.22;78.89;101846.34;5114219;28;19924;-33
2022/08/26 12:33:27;;;;;;;;;;;;;;;24.33;77.81;101850.38;5113506;28;20072;-30
2022/08/26 12:35:58;;;;;;;;;;;;;;;24.33;76.46;101844.66;5113853;28;20015;-35
2022/08/26 12:38:26;;;;;;;;;;;;;;;24.35;77.13;101853.69;5113123;28;19983;-35
2022/08/26 12:40:54;;;;;;;;;;;;;;;24.38;75.14;101861.47;5113921;28;19928;-26
2022/08/26 12:43:41;;;;;;;;;;;;;;;24.44;73.77;101855.50;5113839;28;19924;-29
2022/08/26 12:46:11;;;;;;;;;;;;;;;24.39;74.13;101860.28;5113063;28;19924;-29
2022/08/26 12:48:41;;;;;;;;;;;;;;;24.40;72.71;101861.09;5113690;28;19934;-30
2022/08/26 12:51:14;;;;;;;;;;;;;;;24.38;72.35;101849.22;5113415;28;19928;-30